Bloomington, IL (61705)

7:42 AM CDT on September 30, 2016 (GMT -0500)
Ridgewood Subdivision | | Change Station

Elev 771 ft 40.45 °N, 89.03 °W | Updated 5 minutes ago

Overcast
Overcast
59.6 °F
Feels Like 59.6 °F
N
0.0
Wind Variable Wind from NE
Gusts 2.0 mph

Today
High -- | Low -- °F
--% Chance of Precip.
Yesterday
High -- | Low -- °F
Precip. -- in
Pressure 30.18 in
Visibility 9.0 miles
Clouds Overcast 500 ft
Dew Point 59 °F
Humidity 96%
Rainfall 0.00 in
Snow Depth Not available.
6:51 AM 6:38 PM
Waning Crescent, 0% visible
METAR KBMI 301156Z 01009KT 9SM OVC005 15/14 A3012 RMK AO2 RAE40 SLP219 P0000 60006 70040 T01500144 10156 20144 55004
Pressure 30.18 in
Visibility 9.0 miles
Clouds Overcast 500 ft
Dew Point 59 °F
Humidity 96%
Rainfall 0.00 in
Snow Depth Not available.
6:51 AM 6:38 PM
Waning Crescent, 0% visible
METAR KBMI 301156Z 01009KT 9SM OVC005 15/14 A3012 RMK AO2 RAE40 SLP219 P0000 60006 70040 T01500144 10156 20144 55004

10-Day Weather Forecast

Almanac

Astronomy

Sep. 30, 2016 Rise Set
Actual Time
Civil Twilight
Nautical Twilight
Astronomical Twilight
Moon
Length of Visible Light
Length of Day
Tomorrow will be .
, % of the Moon is Illuminated

Today's Extremes

State Highs State Lows

Community

WunderPhotos

Upload Photos

1,942,704 photos uploaded!

WunderBlog® & News

Nearby

Air Quality

  Air Quality AQ Index Pollutant
Not available.

Snow Depth

Station Depth Elevation

Earthquake Activity

City Distance Mag. Time & Date
Minimum magnitude displayed is 2.5.

Coastal Water Temperatures

Place Temperature

Stations

Nearby Weather Stations

Station Location Temp. Windchill Dew Point Humidity Wind Precip. Elev Updated Type
                   

Watches & Warnings

There are currently no watches in effect.